Time,TemperatureF,DewpointF,PressureIn,WindDirection,WindDirectionDegrees,WindSpeedMPH,WindSpeedGustMPH,Humidity,HourlyPrecipIn,Conditions,Clouds,dailyrainin,SoftwareType,DateUTC
2014-10-23 00:24:00,49.0,43.0,30.23,East,96,0.0,0.0,79,0.00,,,0.00,,2014-10-23 04:24:00,
2014-10-23 00:52:00,48.0,42.0,30.22,East,96,0.0,0.0,79,0.00,,,0.00,,2014-10-23 04:52:00,
2014-10-23 01:23:00,47.0,41.0,30.22,East,96,0.0,0.0,80,0.00,,,0.00,,2014-10-23 05:23:00,
2014-10-23 01:42:00,46.0,41.0,30.22,East,96,0.0,0.0,82,0.00,,,0.00,,2014-10-23 05:42:00,
2014-10-23 01:52:00,46.0,41.0,30.22,East,96,0.0,0.0,83,0.00,,,0.00,,2014-10-23 05:52:00,
2014-10-23 02:22:00,46.0,42.0,30.22,East,96,0.0,0.0,85,0.00,,,0.00,,2014-10-23 06:22:00,
2014-10-23 02:42:00,46.0,42.0,30.22,East,96,0.0,0.0,85,0.00,,,0.00,,2014-10-23 06:42:00,
2014-10-23 02:52:00,46.0,42.0,30.22,East,96,0.0,0.0,85,0.00,,,0.00,,2014-10-23 06:52:00,
2014-10-23 03:22:00,45.0,41.0,30.22,NW,320,0.0,0.0,86,0.00,,,0.00,,2014-10-23 07:22:00,
2014-10-23 03:42:00,45.0,41.0,30.23,NW,320,0.0,0.0,86,0.00,,,0.00,,2014-10-23 07:42:00,
2014-10-23 03:52:00,45.0,41.0,30.23,NW,320,0.0,0.0,86,0.00,,,0.00,,2014-10-23 07:52:00,
2014-10-23 04:12:00,45.0,41.0,30.23,NW,320,0.0,0.0,86,0.00,,,0.00,,2014-10-23 08:12:00,
2014-10-23 04:22:00,46.0,42.0,30.23,NW,320,0.0,0.0,87,0.00,,,0.00,,2014-10-23 08:22:00,
2014-10-23 04:43:00,46.0,42.0,30.22,NW,320,0.0,0.0,87,0.00,,,0.00,,2014-10-23 08:43:00,
2014-10-23 05:12:00,45.0,41.0,30.22,WNW,286,0.0,1.0,87,0.00,,,0.00,,2014-10-23 09:12:00,
2014-10-23 05:22:00,45.0,41.0,30.21,WNW,286,0.0,0.0,87,0.00,,,0.00,,2014-10-23 09:22:00,
2014-10-23 05:43:00,45.0,41.0,30.21,WNW,286,0.0,0.0,87,0.00,,,0.00,,2014-10-23 09:43:00,
2014-10-23 05:53:00,45.0,41.0,30.21,WNW,286,0.0,0.0,87,0.00,,,0.00,,2014-10-23 09:53:00,
2014-10-23 06:23:00,43.0,39.0,30.21,WNW,286,0.0,0.0,87,0.00,,,0.00,,2014-10-23 10:23:00,
2014-10-23 06:43:00,42.0,38.0,30.21,WNW,286,0.0,0.0,86,0.00,,,0.00,,2014-10-23 10:43:00,
2014-10-23 06:53:00,42.0,38.0,30.21,WNW,286,0.0,0.0,87,0.00,,,0.00,,2014-10-23 10:53:00,
2014-10-23 07:22:00,41.0,37.0,30.22,WNW,286,0.0,0.0,87,0.00,,,0.00,,2014-10-23 11:22:00,
2014-10-23 07:52:00,40.0,37.0,30.22,WNW,286,0.0,0.0,88,0.00,,,0.00,,2014-10-23 11:52:00,
2014-10-23 08:22:00,39.0,36.0,30.21,WNW,286,0.0,0.0,88,0.00,,,0.00,,2014-10-23 12:22:00,
2014-10-23 08:42:00,39.0,36.0,30.21,WNW,286,0.0,0.0,89,0.00,,,0.00,,2014-10-23 12:42:00,
2014-10-23 08:52:00,39.0,36.0,30.22,WNW,286,0.0,0.0,89,0.00,,,0.00,,2014-10-23 12:52:00,
2014-10-23 09:22:00,39.0,36.0,30.22,WNW,286,0.0,0.0,90,0.00,,,0.00,,2014-10-23 13:22:00,
2014-10-23 09:42:00,41.0,39.0,30.22,WNW,286,0.0,0.0,92,0.00,,,0.00,,2014-10-23 13:42:00,
2014-10-23 09:52:00,43.0,41.0,30.22,NW,306,0.0,1.0,92,0.00,,,0.00,,2014-10-23 13:52:00,
2014-10-23 10:22:00,47.0,44.0,30.22,North,355,0.0,5.0,88,0.00,,,0.00,,2014-10-23 14:22:00,
2014-10-23 10:42:00,49.0,44.0,30.22,NW,321,0.0,3.0,83,0.00,,,0.00,,2014-10-23 14:42:00,
2014-10-23 10:52:00,50.0,45.0,30.22,WNW,291,1.0,5.0,82,0.00,,,0.00,,2014-10-23 14:52:00,
2014-10-23 11:23:00,52.0,45.0,30.22,WNW,291,1.0,5.0,76,0.00,,,0.00,,2014-10-23 15:23:00,